sensor_id;sensor_type;location;lat;lon;timestamp;pressure;altitude;pressure_sealevel;temperature;humidity
47636;BME280;33364;50.766;15.338;2023-02-19T00:01:30;94748.50;;;3.03;87.35
47636;BME280;33364;50.766;15.338;2023-02-19T00:04:01;94734.34;;;2.91;87.29
47636;BME280;33364;50.766;15.338;2023-02-19T00:06:29;94740.22;;;2.86;87.55
47636;BME280;33364;50.766;15.338;2023-02-19T00:08:55;94732.53;;;2.91;88.01
47636;BME280;33364;50.766;15.338;2023-02-19T00:11:24;94729.09;;;2.84;87.82
47636;BME280;33364;50.766;15.338;2023-02-19T00:13:52;94732.53;;;2.78;87.71
47636;BME280;33364;50.766;15.338;2023-02-19T00:16:25;94730.91;;;2.64;87.38
47636;BME280;33364;50.766;15.338;2023-02-19T00:18:52;94726.84;;;2.61;87.51
47636;BME280;33364;50.766;15.338;2023-02-19T00:21:19;94714.97;;;2.59;87.75
47636;BME280;33364;50.766;15.338;2023-02-19T00:24:04;94730.31;;;2.62;87.75
47636;BME280;33364;50.766;15.338;2023-02-19T00:26:30;94725.06;;;2.75;87.95
47636;BME280;33364;50.766;15.338;2023-02-19T00:28:57;94713.75;;;2.68;87.45
47636;BME280;33364;50.766;15.338;2023-02-19T00:31:25;94725.47;;;2.99;88.63
47636;BME280;33364;50.766;15.338;2023-02-19T00:33:54;94716.97;;;3.10;88.49
47636;BME280;33364;50.766;15.338;2023-02-19T00:36:21;94722.84;;;3.05;88.21
47636;BME280;33364;50.766;15.338;2023-02-19T00:38:47;94724.25;;;3.01;87.57
47636;BME280;33364;50.766;15.338;2023-02-19T00:41:15;94718.78;;;3.23;87.81
47636;BME280;33364;50.766;15.338;2023-02-19T00:46:14;94720.63;;;3.22;87.43
47636;BME280;33364;50.766;15.338;2023-02-19T00:48:39;94717.34;;;3.27;87.59
47636;BME280;33364;50.766;15.338;2023-02-19T00:51:05;94718.38;;;3.33;87.35
47636;BME280;33364;50.766;15.338;2023-02-19T00:53:31;94718.72;;;3.70;86.24
47636;BME280;33364;50.766;15.338;2023-02-19T00:55:57;94712.06;;;3.60;85.88
47636;BME280;33364;50.766;15.338;2023-02-19T00:58:22;94707.81;;;3.53;86.11
47636;BME280;33364;50.766;15.338;2023-02-19T01:00:48;94704.00;;;3.48;86.23
47636;BME280;33364;50.766;15.338;2023-02-19T01:03:14;94709.25;;;3.48;86.55
47636;BME280;33364;50.766;15.338;2023-02-19T01:05:40;94706.84;;;3.40;86.32
47636;BME280;33364;50.766;15.338;2023-02-19T01:08:05;94716.94;;;3.43;85.90
47636;BME280;33364;50.766;15.338;2023-02-19T01:10:31;94714.75;;;3.40;86.12
47636;BME280;33364;50.766;15.338;2023-02-19T01:12:57;94711.28;;;3.53;86.30
47636;BME280;33364;50.766;15.338;2023-02-19T01:15:23;94700.13;;;3.58;85.51
47636;BME280;33364;50.766;15.338;2023-02-19T01:17:48;94699.25;;;3.77;84.54
47636;BME280;33364;50.766;15.338;2023-02-19T01:20:15;94694.84;;;3.64;84.53
47636;BME280;33364;50.766;15.338;2023-02-19T01:22:40;94699.13;;;3.59;84.61
47636;BME280;33364;50.766;15.338;2023-02-19T01:25:06;94694.88;;;3.58;85.11
47636;BME280;33364;50.766;15.338;2023-02-19T01:27:32;94691.81;;;3.67;84.87
47636;BME280;33364;50.766;15.338;2023-02-19T01:29:58;94685.75;;;3.67;84.65
47636;BME280;33364;50.766;15.338;2023-02-19T01:32:23;94677.50;;;3.57;84.50
47636;BME280;33364;50.766;15.338;2023-02-19T01:34:49;94681.56;;;3.53;84.63
47636;BME280;33364;50.766;15.338;2023-02-19T01:37:15;94669.66;;;3.50;85.32
47636;BME280;33364;50.766;15.338;2023-02-19T01:39:41;94672.91;;;3.45;85.22
47636;BME280;33364;50.766;15.338;2023-02-19T01:42:13;94675.91;;;3.49;85.44
47636;BME280;33364;50.766;15.338;2023-02-19T01:47:10;94658.31;;;3.49;85.33
47636;BME280;33364;50.766;15.338;2023-02-19T01:49:55;94640.13;;;3.48;85.62
47636;BME280;33364;50.766;15.338;2023-02-19T01:52:32;94646.03;;;3.43;85.63
47636;BME280;33364;50.766;15.338;2023-02-19T01:55:00;94646.03;;;3.43;85.99
47636;BME280;33364;50.766;15.338;2023-02-19T01:57:30;94642.59;;;3.43;85.76
47636;BME280;33364;50.766;15.338;2023-02-19T02:00:03;94635.53;;;3.43;85.50
47636;BME280;33364;50.766;15.338;2023-02-19T02:02:31;94632.69;;;3.38;85.66
47636;BME280;33364;50.766;15.338;2023-02-19T02:04:57;94635.56;;;3.30;85.25
47636;BME280;33364;50.766;15.338;2023-02-19T02:07:25;94620.03;;;3.15;85.31
47636;BME280;33364;50.766;15.338;2023-02-19T02:10:10;94620.25;;;3.07;86.02
47636;BME280;33364;50.766;15.338;2023-02-19T02:12:45;94624.34;;;2.96;86.16
47636;BME280;33364;50.766;15.338;2023-02-19T02:15:12;94614.25;;;2.93;85.83
47636;BME280;33364;50.766;15.338;2023-02-19T02:18:06;94611.66;;;2.80;85.69
47636;BME280;33364;50.766;15.338;2023-02-19T02:20:57;94617.91;;;2.79;86.07
47636;BME280;33364;50.766;15.338;2023-02-19T02:23:40;94610.44;;;2.75;86.35
47636;BME280;33364;50.766;15.338;2023-02-19T02:29:03;94613.03;;;2.82;86.91
47636;BME280;33364;50.766;15.338;2023-02-19T02:31:34;94609.22;;;2.85;86.27
47636;BME280;33364;50.766;15.338;2023-02-19T02:34:09;94610.84;;;2.72;85.81
47636;BME280;33364;50.766;15.338;2023-02-19T02:36:40;94610.25;;;2.70;85.94
47636;BME280;33364;50.766;15.338;2023-02-19T02:39:11;94608.22;;;2.66;86.25
47636;BME280;33364;50.766;15.338;2023-02-19T02:41:42;94598.72;;;2.58;85.88
47636;BME280;33364;50.766;15.338;2023-02-19T02:44:08;94601.56;;;2.50;85.98
47636;BME280;33364;50.766;15.338;2023-02-19T02:46:36;94605.41;;;2.61;86.81
47636;BME280;33364;50.766;15.338;2023-02-19T02:49:07;94602.19;;;2.52;86.27
47636;BME280;33364;50.766;15.338;2023-02-19T02:51:46;94594.31;;;2.52;86.58
47636;BME280;33364;50.766;15.338;2023-02-19T02:54:22;94592.31;;;2.54;86.26
47636;BME280;33364;50.766;15.338;2023-02-19T02:57:11;94592.31;;;2.54;86.46
47636;BME280;33364;50.766;15.338;2023-02-19T02:59:41;94588.66;;;2.48;86.44
47636;BME280;33364;50.766;15.338;2023-02-19T03:04:52;94568.53;;;2.35;86.94
47636;BME280;33364;50.766;15.338;2023-02-19T03:10:14;94553.41;;;2.24;87.34
47636;BME280;33364;50.766;15.338;2023-02-19T03:12:43;94551.16;;;2.21;87.33
47636;BME280;33364;50.766;15.338;2023-02-19T03:15:32;94558.00;;;2.22;87.26
47636;BME280;33364;50.766;15.338;2023-02-19T03:18:20;94557.59;;;2.25;86.87
47636;BME280;33364;50.766;15.338;2023-02-19T03:21:06;94549.75;;;2.18;87.06
47636;BME280;33364;50.766;15.338;2023-02-19T03:23:32;94551.56;;;2.18;87.16
47636;BME280;33364;50.766;15.338;2023-02-19T03:26:18;94551.56;;;2.18;87.12
47636;BME280;33364;50.766;15.338;2023-02-19T03:28:47;94562.06;;;2.18;87.29
47636;BME280;33364;50.766;15.338;2023-02-19T03:31:34;94553.78;;;2.14;86.96
47636;BME280;33364;50.766;15.338;2023-02-19T03:34:06;94552.38;;;2.12;87.38
47636;BME280;33364;50.766;15.338;2023-02-19T03:36:38;94550.34;;;2.14;87.34
47636;BME280;33364;50.766;15.338;2023-02-19T03:39:09;94548.31;;;2.09;87.26
47636;BME280;33364;50.766;15.338;2023-02-19T03:44:29;94550.16;;;2.02;87.38
47636;BME280;33364;50.766;15.338;2023-02-19T03:47:20;94554.19;;;2.11;87.71
47636;BME280;33364;50.766;15.338;2023-02-19T03:50:18;94546.94;;;2.07;87.59
47636;BME280;33364;50.766;15.338;2023-02-19T03:53:06;94540.47;;;2.09;87.19
47636;BME280;33364;50.766;15.338;2023-02-19T03:55:45;94536.06;;;2.10;87.56
47636;BME280;33364;50.766;15.338;2023-02-19T03:58:19;94530.41;;;2.13;87.76
47636;BME280;33364;50.766;15.338;2023-02-19T04:00:57;94526.56;;;2.09;87.77
47636;BME280;33364;50.766;15.338;2023-02-19T04:03:35;94525.75;;;2.08;87.85
47636;BME280;33364;50.766;15.338;2023-02-19T04:06:11;94523.94;;;2.09;87.96
47636;BME280;33364;50.766;15.338;2023-02-19T04:08:41;94528.97;;;2.10;87.65
47636;BME280;33364;50.766;15.338;2023-02-19T04:11:09;94526.97;;;2.06;87.59
47636;BME280;33364;50.766;15.338;2023-02-19T04:13:43;94535.22;;;2.09;87.80
47636;BME280;33364;50.766;15.338;2023-02-19T04:16:18;94523.75;;;2.04;87.56
47636;BME280;33364;50.766;15.338;2023-02-19T04:18:46;94515.88;;;1.97;87.44
47636;BME280;33364;50.766;15.338;2023-02-19T04:21:14;94520.94;;;1.98;87.66
47636;BME280;33364;50.766;15.338;2023-02-19T04:23:43;94514.47;;;1.94;87.66
47636;BME280;33364;50.766;15.338;2023-02-19T04:26:11;94512.88;;;1.93;87.40
47636;BME280;33364;50.766;15.338;2023-02-19T04:28:38;94515.50;;;1.93;87.36
47636;BME280;33364;50.766;15.338;2023-02-19T04:31:04;94519.09;;;1.92;87.34
47636;BME280;33364;50.766;15.338;2023-02-19T04:33:30;94523.34;;;1.93;87.22
47636;BME280;33364;50.766;15.338;2023-02-19T04:35:56;94520.53;;;2.01;86.89
47636;BME280;33364;50.766;15.338;2023-02-19T04:38:22;94520.91;;;2.12;87.88
47636;BME280;33364;50.766;15.338;2023-02-19T04:40:48;94517.69;;;2.10;88.08
47636;BME280;33364;50.766;15.338;2023-02-19T04:43:16;94508.00;;;2.17;88.54
47636;BME280;33364;50.766;15.338;2023-02-19T04:45:42;94508.84;;;2.24;88.82
47636;BME280;33364;50.766;15.338;2023-02-19T04:48:08;94507.41;;;2.28;88.77
47636;BME280;33364;50.766;15.338;2023-02-19T04:50:37;94503.56;;;2.37;89.29
47636;BME280;33364;50.766;15.338;2023-02-19T04:53:03;94500.75;;;2.32;89.16
47636;BME280;33364;50.766;15.338;2023-02-19T04:55:29;94499.50;;;2.42;89.35
47636;BME280;33364;50.766;15.338;2023-02-19T04:57:54;94494.25;;;2.42;89.58
47636;BME280;33364;50.766;15.338;2023-02-19T05:00:20;94498.09;;;2.46;89.36
47636;BME280;33364;50.766;15.338;2023-02-19T05:02:46;94501.53;;;2.46;89.25
47636;BME280;33364;50.766;15.338;2023-02-19T05:05:12;94486.81;;;2.52;89.43
47636;BME280;33364;50.766;15.338;2023-02-19T05:07:37;94485.78;;;2.53;89.31
47636;BME280;33364;50.766;15.338;2023-02-19T05:10:03;94484.19;;;2.38;88.80
47636;BME280;33364;50.766;15.338;2023-02-19T05:12:30;94483.00;;;2.28;88.75
47636;BME280;33364;50.766;15.338;2023-02-19T05:14:56;94476.34;;;2.25;88.65
47636;BME280;33364;50.766;15.338;2023-02-19T05:17:21;94478.78;;;2.20;88.73
47636;BME280;33364;50.766;15.338;2023-02-19T05:19:47;94477.78;;;2.14;88.59
47636;BME280;33364;50.766;15.338;2023-02-19T05:22:13;94474.13;;;2.15;88.67
47636;BME280;33364;50.766;15.338;2023-02-19T05:24:39;94472.94;;;2.18;88.57
47636;BME280;33364;50.766;15.338;2023-02-19T05:27:04;94469.69;;;2.09;88.46
47636;BME280;33364;50.766;15.338;2023-02-19T05:29:31;94467.31;;;2.14;88.24
47636;BME280;33364;50.766;15.338;2023-02-19T05:31:57;94467.72;;;2.05;88.15
47636;BME280;33364;50.766;15.338;2023-02-19T05:34:22;94468.13;;;2.01;88.06
47636;BME280;33364;50.766;15.338;2023-02-19T05:36:48;94463.69;;;1.95;88.32
47636;BME280;33364;50.766;15.338;2023-02-19T05:39:14;94461.06;;;1.95;87.94
47636;BME280;33364;50.766;15.338;2023-02-19T05:41:40;94463.09;;;1.93;88.26
47636;BME280;33364;50.766;15.338;2023-02-19T05:44:06;94468.53;;;1.92;88.26
47636;BME280;33364;50.766;15.338;2023-02-19T05:46:31;94459.66;;;1.86;88.20
47636;BME280;33364;50.766;15.338;2023-02-19T05:48:57;94464.50;;;1.82;88.23
47636;BME280;33364;50.766;15.338;2023-02-19T05:51:25;94460.28;;;1.81;87.88
47636;BME280;33364;50.766;15.338;2023-02-19T05:53:51;94463.88;;;1.80;88.00
47636;BME280;33364;50.766;15.338;2023-02-19T05:56:36;94469.31;;;1.79;88.00
47636;BME280;33364;50.766;15.338;2023-02-19T05:59:23;94471.94;;;1.72;87.93
47636;BME280;33364;50.766;15.338;2023-02-19T06:01:50;94474.38;;;1.74;88.18
47636;BME280;33364;50.766;15.338;2023-02-19T06:04:17;94476.41;;;1.72;87.90
47636;BME280;33364;50.766;15.338;2023-02-19T06:06:45;94477.38;;;1.71;87.94
47636;BME280;33364;50.766;15.338;2023-02-19T06:09:11;94471.75;;;1.74;88.37
47636;BME280;33364;50.766;15.338;2023-02-19T06:11:39;94479.41;;;1.75;87.99
47636;BME280;33364;50.766;15.338;2023-02-19T06:14:05;94466.72;;;1.79;88.22
47636;BME280;33364;50.766;15.338;2023-02-19T06:16:31;94466.09;;;1.90;88.26
47636;BME280;33364;50.766;15.338;2023-02-19T06:19:01;94459.84;;;1.91;88.07
47636;BME280;33364;50.766;15.338;2023-02-19T06:21:27;94463.69;;;1.89;87.89
47636;BME280;33364;50.766;15.338;2023-02-19T06:23:53;94466.50;;;1.87;87.84
47636;BME280;33364;50.766;15.338;2023-02-19T06:26:23;94456.22;;;1.86;87.28
47636;BME280;33364;50.766;15.338;2023-02-19T06:28:51;94463.28;;;1.85;87.21
47636;BME280;33364;50.766;15.338;2023-02-19T06:31:18;94476.59;;;1.90;87.05
47636;BME280;33364;50.766;15.338;2023-02-19T06:33:44;94487.47;;;1.87;87.11
47636;BME280;33364;50.766;15.338;2023-02-19T06:36:13;94506.41;;;1.82;86.80
47636;BME280;33364;50.766;15.338;2023-02-19T06:38:39;94495.13;;;1.82;87.18
47636;BME280;33364;50.766;15.338;2023-02-19T06:41:07;94480.00;;;1.77;87.84
47636;BME280;33364;50.766;15.338;2023-02-19T06:43:33;94488.47;;;1.79;87.96
47636;BME280;33364;50.766;15.338;2023-02-19T06:46:01;94488.25;;;1.81;88.06
47636;BME280;33364;50.766;15.338;2023-02-19T06:48:28;94497.94;;;1.80;87.83
47636;BME280;33364;50.766;15.338;2023-02-19T06:50:54;94500.97;;;1.84;87.63
47636;BME280;33364;50.766;15.338;2023-02-19T06:53:21;94508.81;;;1.77;87.56
47636;BME280;33364;50.766;15.338;2023-02-19T06:56:04;94514.84;;;1.78;87.12
47636;BME280;33364;50.766;15.338;2023-02-19T06:58:30;94511.03;;;1.74;87.10
47636;BME280;33364;50.766;15.338;2023-02-19T07:00:57;94510.03;;;1.81;87.57
47636;BME280;33364;50.766;15.338;2023-02-19T07:03:23;94509.63;;;1.91;87.39
47636;BME280;33364;50.766;15.338;2023-02-19T07:05:50;94506.59;;;1.94;87.23
47636;BME280;33364;50.766;15.338;2023-02-19T07:08:16;94497.94;;;1.94;87.18
47636;BME280;33364;50.766;15.338;2023-02-19T07:10:43;94513.88;;;1.99;86.89
47636;BME280;33364;50.766;15.338;2023-02-19T07:13:09;94506.00;;;1.99;87.07
47636;BME280;33364;50.766;15.338;2023-02-19T07:15:35;94514.47;;;2.01;87.38
47636;BME280;33364;50.766;15.338;2023-02-19T07:18:01;94513.25;;;1.97;87.08
47636;BME280;33364;50.766;15.338;2023-02-19T07:20:26;94508.03;;;2.04;87.52
47636;BME280;33364;50.766;15.338;2023-02-19T07:22:52;94497.75;;;2.09;87.44
47636;BME280;33364;50.766;15.338;2023-02-19T07:25:18;94498.75;;;2.21;87.49
47636;BME280;33364;50.766;15.338;2023-02-19T07:27:44;94495.69;;;2.37;87.72
47636;BME280;33364;50.766;15.338;2023-02-19T07:30:09;94489.88;;;2.35;87.28
47636;BME280;33364;50.766;15.338;2023-02-19T07:32:39;94486.22;;;2.36;87.25
47636;BME280;33364;50.766;15.338;2023-02-19T07:35:05;94490.25;;;2.39;87.14
47636;BME280;33364;50.766;15.338;2023-02-19T07:37:31;94500.75;;;2.39;86.56
47636;BME280;33364;50.766;15.338;2023-02-19T07:39:57;94499.31;;;2.43;86.76
47636;BME280;33364;50.766;15.338;2023-02-19T07:42:23;94505.97;;;2.46;87.29
47636;BME280;33364;50.766;15.338;2023-02-19T07:44:48;94509.19;;;2.54;87.51
47636;BME280;33364;50.766;15.338;2023-02-19T07:47:14;94512.38;;;2.56;87.67
47636;BME280;33364;50.766;15.338;2023-02-19T07:49:40;94515.63;;;2.59;87.53
47636;BME280;33364;50.766;15.338;2023-02-19T07:52:06;94512.81;;;2.60;87.42
47636;BME280;33364;50.766;15.338;2023-02-19T07:54:31;94514.38;;;2.74;87.66
47636;BME280;33364;50.766;15.338;2023-02-19T07:56:57;94518.41;;;2.77;87.88
47636;BME280;33364;50.766;15.338;2023-02-19T07:59:24;94514.97;;;2.83;87.96
47636;BME280;33364;50.766;15.338;2023-02-19T08:01:49;94520.00;;;2.85;88.01
47636;BME280;33364;50.766;15.338;2023-02-19T08:04:50;94524.03;;;2.81;87.84
47636;BME280;33364;50.766;15.338;2023-02-19T08:07:16;94521.22;;;2.75;87.96
47636;BME280;33364;50.766;15.338;2023-02-19T08:09:42;94523.84;;;2.75;87.65
47636;BME280;33364;50.766;15.338;2023-02-19T08:12:10;94521.59;;;2.86;87.94
47636;BME280;33364;50.766;15.338;2023-02-19T08:14:54;94525.44;;;2.90;88.52
47636;BME280;33364;50.766;15.338;2023-02-19T08:17:20;94521.38;;;2.94;88.47
47636;BME280;33364;50.766;15.338;2023-02-19T08:19:46;94523.59;;;2.97;88.04
47636;BME280;33364;50.766;15.338;2023-02-19T08:22:11;94537.53;;;2.98;87.37
47636;BME280;33364;50.766;15.338;2023-02-19T08:24:37;94533.66;;;3.00;87.89
47636;BME280;33364;50.766;15.338;2023-02-19T08:27:07;94533.84;;;3.05;87.87
47636;BME280;33364;50.766;15.338;2023-02-19T08:29:32;94536.03;;;3.15;88.01
47636;BME280;33364;50.766;15.338;2023-02-19T08:31:59;94531.38;;;3.24;88.18
47636;BME280;33364;50.766;15.338;2023-02-19T08:34:25;94554.16;;;3.30;88.12
47636;BME280;33364;50.766;15.338;2023-02-19T08:36:51;94550.56;;;3.24;87.67
47636;BME280;33364;50.766;15.338;2023-02-19T08:39:16;94551.75;;;3.22;87.44
47636;BME280;33364;50.766;15.338;2023-02-19T08:41:42;94557.00;;;3.22;87.57
47636;BME280;33364;50.766;15.338;2023-02-19T08:44:08;94563.13;;;3.16;87.19
47636;BME280;33364;50.766;15.338;2023-02-19T08:46:34;94561.50;;;3.15;87.54
47636;BME280;33364;50.766;15.338;2023-02-19T08:48:59;94565.53;;;3.17;87.18
47636;BME280;33364;50.766;15.338;2023-02-19T08:51:25;94577.22;;;3.21;86.95
47636;BME280;33364;50.766;15.338;2023-02-19T08:53:51;94581.84;;;3.26;87.01
47636;BME280;33364;50.766;15.338;2023-02-19T08:56:17;94585.28;;;3.26;86.61
47636;BME280;33364;50.766;15.338;2023-02-19T08:58:43;94590.53;;;3.26;86.21
47636;BME280;33364;50.766;15.338;2023-02-19T09:01:11;94594.78;;;3.27;85.56
47636;BME280;33364;50.766;15.338;2023-02-19T09:03:37;94600.38;;;3.38;83.17
47636;BME280;33364;50.766;15.338;2023-02-19T09:06:03;94599.81;;;3.29;83.82
47636;BME280;33364;50.766;15.338;2023-02-19T09:08:28;94608.53;;;3.23;82.54
47636;BME280;33364;50.766;15.338;2023-02-19T09:10:59;94609.56;;;3.08;82.48
47636;BME280;33364;50.766;15.338;2023-02-19T09:13:26;94615.84;;;3.07;82.84
47636;BME280;33364;50.766;15.338;2023-02-19T09:15:52;94621.06;;;3.01;82.58
47636;BME280;33364;50.766;15.338;2023-02-19T09:18:17;94618.06;;;2.97;82.95
47636;BME280;33364;50.766;15.338;2023-02-19T09:20:43;94620.09;;;2.95;82.79
47636;BME280;33364;50.766;15.338;2023-02-19T09:23:09;94628.16;;;3.00;82.82
47636;BME280;33364;50.766;15.338;2023-02-19T09:25:34;94634.19;;;3.01;82.91
47636;BME280;33364;50.766;15.338;2023-02-19T09:28:00;94647.53;;;2.92;82.83
47636;BME280;33364;50.766;15.338;2023-02-19T09:30:26;94639.66;;;2.92;83.28
47636;BME280;33364;50.766;15.338;2023-02-19T09:32:51;94638.69;;;2.87;82.74
47636;BME280;33364;50.766;15.338;2023-02-19T09:35:17;94651.19;;;2.85;82.42
47636;BME280;33364;50.766;15.338;2023-02-19T09:37:43;94650.81;;;2.88;82.31
47636;BME280;33364;50.766;15.338;2023-02-19T09:40:09;94648.78;;;2.90;82.86
47636;BME280;33364;50.766;15.338;2023-02-19T09:42:39;94664.91;;;2.93;82.73
47636;BME280;33364;50.766;15.338;2023-02-19T09:45:09;94666.75;;;2.80;80.71
47636;BME280;33364;50.766;15.338;2023-02-19T09:47:39;94665.94;;;2.72;81.23
47636;BME280;33364;50.766;15.338;2023-02-19T09:50:07;94678.25;;;2.65;80.96
47636;BME280;33364;50.766;15.338;2023-02-19T09:55:14;94696.81;;;2.50;79.76
47636;BME280;33364;50.766;15.338;2023-02-19T09:57:41;94707.47;;;2.42;80.99
47636;BME280;33364;50.766;15.338;2023-02-19T10:00:18;94713.31;;;2.31;80.07
47636;BME280;33364;50.766;15.338;2023-02-19T10:02:44;94707.69;;;2.41;79.87
47636;BME280;33364;50.766;15.338;2023-02-19T10:05:14;94708.91;;;2.58;79.34
47636;BME280;33364;50.766;15.338;2023-02-19T10:07:43;94718.38;;;2.46;79.78
47636;BME280;33364;50.766;15.338;2023-02-19T10:12:44;94728.69;;;2.54;79.79
47636;BME280;33364;50.766;15.338;2023-02-19T10:17:42;94735.88;;;2.38;79.00
47636;BME280;33364;50.766;15.338;2023-02-19T10:20:17;94737.75;;;2.58;79.61
47636;BME280;33364;50.766;15.338;2023-02-19T10:22:43;94737.56;;;2.73;80.64
47636;BME280;33364;50.766;15.338;2023-02-19T10:25:14;94745.66;;;2.78;79.75
47636;BME280;33364;50.766;15.338;2023-02-19T10:27:41;94750.50;;;2.81;80.19
47636;BME280;33364;50.766;15.338;2023-02-19T10:30:17;94758.38;;;2.88;79.06
47636;BME280;33364;50.766;15.338;2023-02-19T10:35:24;94778.75;;;2.92;79.10
47636;BME280;33364;50.766;15.338;2023-02-19T10:37:50;94798.34;;;2.90;78.83
47636;BME280;33364;50.766;15.338;2023-02-19T10:40:35;94803.78;;;2.68;76.03
47636;BME280;33364;50.766;15.338;2023-02-19T10:43:02;94805.38;;;2.76;76.10
47636;BME280;33364;50.766;15.338;2023-02-19T10:45:38;94805.19;;;2.78;75.86
47636;BME280;33364;50.766;15.338;2023-02-19T10:48:06;94801.75;;;2.84;76.30
47636;BME280;33364;50.766;15.338;2023-02-19T10:50:50;94805.00;;;2.92;76.35
47636;BME280;33364;50.766;15.338;2023-02-19T10:53:22;94805.44;;;3.16;75.06
47636;BME280;33364;50.766;15.338;2023-02-19T10:56:05;94804.22;;;3.39;72.97
47636;BME280;33364;50.766;15.338;2023-02-19T10:58:31;94815.50;;;3.66;75.02
47636;BME280;33364;50.766;15.338;2023-02-19T11:03:44;94825.44;;;3.37;71.89
47636;BME280;33364;50.766;15.338;2023-02-19T11:06:12;94824.81;;;3.28;73.42
47636;BME280;33364;50.766;15.338;2023-02-19T11:08:53;94824.63;;;3.50;72.54
47636;BME280;33364;50.766;15.338;2023-02-19T11:11:32;94819.16;;;3.38;72.43
47636;BME280;33364;50.766;15.338;2023-02-19T11:14:10;94826.00;;;3.66;72.32
47636;BME280;33364;50.766;15.338;2023-02-19T11:16:46;94831.22;;;4.06;70.00
47636;BME280;33364;50.766;15.338;2023-02-19T11:21:54;94836.31;;;4.53;70.68
47636;BME280;33364;50.766;15.338;2023-02-19T11:24:40;94830.88;;;4.86;70.09
47636;BME280;33364;50.766;15.338;2023-02-19T11:27:16;94845.88;;;4.86;67.71
47636;BME280;33364;50.766;15.338;2023-02-19T11:29:42;94848.34;;;4.81;67.00
47636;BME280;33364;50.766;15.338;2023-02-19T11:32:28;94865.44;;;4.58;67.54
47636;BME280;33364;50.766;15.338;2023-02-19T11:37:52;94867.22;;;4.12;67.03
47636;BME280;33364;50.766;15.338;2023-02-19T11:40:23;94868.69;;;3.68;66.97
47636;BME280;33364;50.766;15.338;2023-02-19T11:43:04;94858.53;;;3.18;67.95
47636;BME280;33364;50.766;15.338;2023-02-19T11:45:45;94862.41;;;3.29;68.06
47636;BME280;33364;50.766;15.338;2023-02-19T11:51:24;94868.66;;;3.55;66.20
47636;BME280;33364;50.766;15.338;2023-02-19T11:54:11;94858.75;;;3.30;66.61
47636;BME280;33364;50.766;15.338;2023-02-19T11:56:40;94857.97;;;3.36;66.44
47636;BME280;33364;50.766;15.338;2023-02-19T12:02:10;94870.91;;;3.71;65.76
47636;BME280;33364;50.766;15.338;2023-02-19T12:19:18;94918.75;;;2.65;67.26
47636;BME280;33364;50.766;15.338;2023-02-19T12:24:55;94946.69;;;2.37;68.04
47636;BME280;33364;50.766;15.338;2023-02-19T12:39:03;94967.63;;;1.53;70.13
47636;BME280;33364;50.766;15.338;2023-02-19T12:41:44;94967.94;;;1.43;69.64
47636;BME280;33364;50.766;15.338;2023-02-19T12:44:45;94963.13;;;1.46;69.56
47636;BME280;33364;50.766;15.338;2023-02-19T12:47:20;94965.84;;;1.17;71.38
47636;BME280;33364;50.766;15.338;2023-02-19T12:50:02;94947.66;;;1.30;71.68
47636;BME280;33364;50.766;15.338;2023-02-19T12:52:36;94964.16;;;1.31;71.94
47636;BME280;33364;50.766;15.338;2023-02-19T12:57:50;94971.16;;;1.45;71.82
47636;BME280;33364;50.766;15.338;2023-02-19T13:03:21;94990.22;;;1.17;71.02
47636;BME280;33364;50.766;15.338;2023-02-19T13:05:50;94984.28;;;1.08;71.39
47636;BME280;33364;50.766;15.338;2023-02-19T13:08:31;94982.97;;;1.19;70.74
47636;BME280;33364;50.766;15.338;2023-02-19T13:11:30;94983.13;;;1.33;68.75
47636;BME280;33364;50.766;15.338;2023-02-19T13:14:00;94990.81;;;1.34;68.86
47636;BME280;33364;50.766;15.338;2023-02-19T13:16:29;94991.59;;;1.13;69.45
47636;BME280;33364;50.766;15.338;2023-02-19T13:19:00;94980.47;;;1.11;69.00
47636;BME280;33364;50.766;15.338;2023-02-19T13:21:30;94992.34;;;1.28;68.28
47636;BME280;33364;50.766;15.338;2023-02-19T13:24:27;94992.84;;;1.39;68.60
47636;BME280;33364;50.766;15.338;2023-02-19T13:32:48;94999.22;;;1.51;66.72
47636;BME280;33364;50.766;15.338;2023-02-19T13:38:09;95014.69;;;1.68;66.81
47636;BME280;33364;50.766;15.338;2023-02-19T13:40:40;95001.09;;;1.57;65.57
47636;BME280;33364;50.766;15.338;2023-02-19T13:43:25;95013.13;;;1.52;66.42
47636;BME280;33364;50.766;15.338;2023-02-19T13:45:58;94993.63;;;1.54;65.32
47636;BME280;33364;50.766;15.338;2023-02-19T13:48:34;95005.38;;;1.65;65.60
47636;BME280;33364;50.766;15.338;2023-02-19T13:58:58;95026.38;;;1.28;64.78
47636;BME280;33364;50.766;15.338;2023-02-19T14:04:42;95041.97;;;1.37;66.39
47636;BME280;33364;50.766;15.338;2023-02-19T14:17:00;95061.44;;;2.14;65.94
47636;BME280;33364;50.766;15.338;2023-02-19T14:30:30;95067.44;;;1.64;65.40
47636;BME280;33364;50.766;15.338;2023-02-19T14:32:57;95066.38;;;1.59;66.45
47636;BME280;33364;50.766;15.338;2023-02-19T14:35:33;95064.13;;;1.56;68.52
47636;BME280;33364;50.766;15.338;2023-02-19T14:38:00;95076.16;;;1.50;66.14
47636;BME280;33364;50.766;15.338;2023-02-19T14:40:40;95059.69;;;1.35;66.52
47636;BME280;33364;50.766;15.338;2023-02-19T14:43:10;95073.91;;;1.47;66.97
47636;BME280;33364;50.766;15.338;2023-02-19T14:45:46;95090.63;;;1.46;67.81
47636;BME280;33364;50.766;15.338;2023-02-19T14:48:19;95095.44;;;0.98;67.76
47636;BME280;33364;50.766;15.338;2023-02-19T14:50:52;95090.56;;;0.95;68.49
47636;BME280;33364;50.766;15.338;2023-02-19T14:53:21;95084.44;;;0.87;69.09
47636;BME280;33364;50.766;15.338;2023-02-19T14:55:49;95095.19;;;0.78;70.36
47636;BME280;33364;50.766;15.338;2023-02-19T14:58:23;95101.50;;;0.98;70.61
47636;BME280;33364;50.766;15.338;2023-02-19T15:00:50;95104.94;;;0.99;70.15
47636;BME280;33364;50.766;15.338;2023-02-19T15:03:30;95108.34;;;0.99;70.67
47636;BME280;33364;50.766;15.338;2023-02-19T15:06:06;95111.50;;;1.09;72.60
47636;BME280;33364;50.766;15.338;2023-02-19T15:08:36;95116.19;;;1.14;71.55
47636;BME280;33364;50.766;15.338;2023-02-19T15:11:08;95121.41;;;1.14;70.19
47636;BME280;33364;50.766;15.338;2023-02-19T15:13:35;95122.78;;;1.10;69.97